createdAt,value
2023-02-21T00:00:57.251Z,8.21
2023-02-21T00:01:57.257Z,8.21
2023-02-21T00:02:57.240Z,8.21
2023-02-21T00:03:57.221Z,8.21
2023-02-21T00:04:57.213Z,8.21
2023-02-21T00:05:57.208Z,8.21
2023-02-21T00:06:57.206Z,8.21
2023-02-21T00:07:57.162Z,8.21
2023-02-21T00:08:57.161Z,8.21
2023-02-21T00:09:57.149Z,8.21
2023-02-21T00:10:57.164Z,8.20
2023-02-21T00:11:57.092Z,8.20
2023-02-21T00:12:57.078Z,8.21
2023-02-21T00:13:57.088Z,8.21
2023-02-21T00:14:57.081Z,8.20
2023-02-21T00:15:57.052Z,8.21
2023-02-21T00:16:57.034Z,8.21
2023-02-21T00:17:57.012Z,8.22
2023-02-21T00:18:57.003Z,8.21
2023-02-21T00:19:57.012Z,8.20
2023-02-21T00:20:57.008Z,8.20
2023-02-21T00:21:56.980Z,8.21
2023-02-21T00:22:56.980Z,8.20
2023-02-21T00:23:56.958Z,8.20
2023-02-21T00:24:57.001Z,8.21
2023-02-21T00:25:56.901Z,8.18
2023-02-21T00:26:56.931Z,8.21
2023-02-21T00:27:56.916Z,8.20
2023-02-21T00:28:56.872Z,8.20
2023-02-21T00:29:56.871Z,8.18
2023-02-21T00:30:56.945Z,8.14
2023-02-21T00:32:04.439Z,8.13
2023-02-21T00:32:57.710Z,8.13
2023-02-21T00:33:56.824Z,8.14
2023-02-21T00:34:58.577Z,8.14
2023-02-21T00:35:56.760Z,8.14
2023-02-21T00:36:56.761Z,8.13
2023-02-21T00:37:56.744Z,8.12
2023-02-21T00:38:56.786Z,8.13
2023-02-21T00:39:56.711Z,8.12
2023-02-21T00:40:56.722Z,8.12
2023-02-21T00:41:56.716Z,8.10
2023-02-21T00:42:56.716Z,8.10
2023-02-21T00:43:56.708Z,8.09
2023-02-21T00:44:56.696Z,8.09
2023-02-21T00:45:56.700Z,8.07
2023-02-21T00:46:56.678Z,8.09
2023-02-21T00:47:56.650Z,8.07
2023-02-21T00:48:56.607Z,8.10
2023-02-21T00:49:56.596Z,8.07
2023-02-21T00:50:56.576Z,8.07
2023-02-21T00:51:56.554Z,8.09
2023-02-21T00:52:56.559Z,8.07
2023-02-21T00:53:56.552Z,8.07
2023-02-21T00:54:56.595Z,8.07
2023-02-21T00:55:56.550Z,8.09
2023-02-21T00:56:56.532Z,8.07
2023-02-21T00:57:56.474Z,8.07
2023-02-21T00:58:56.500Z,8.09
2023-02-21T00:59:56.463Z,8.07
2023-02-21T01:00:56.488Z,8.07
2023-02-21T01:01:56.426Z,8.10
2023-02-21T01:02:56.461Z,8.09
2023-02-21T01:03:56.435Z,8.09
2023-02-21T01:04:56.397Z,8.10
2023-02-21T01:05:56.378Z,8.10
2023-02-21T01:06:56.427Z,8.10
2023-02-21T01:07:56.350Z,8.09
2023-02-21T01:08:56.358Z,8.10
2023-02-21T01:09:56.325Z,8.09
2023-02-21T01:10:56.363Z,8.10
2023-02-21T01:11:56.368Z,8.10
2023-02-21T01:12:56.325Z,8.12
2023-02-21T01:13:56.285Z,8.12
2023-02-21T01:14:56.281Z,8.10
2023-02-21T01:15:56.381Z,8.12
2023-02-21T01:16:59.412Z,8.10
2023-02-21T01:17:57.239Z,8.10
2023-02-21T01:18:56.267Z,8.10
2023-02-21T01:19:56.212Z,8.12
2023-02-21T01:20:56.200Z,8.10
2023-02-21T01:21:56.199Z,8.10
2023-02-21T01:22:56.224Z,8.10
2023-02-21T01:23:56.183Z,8.12
2023-02-21T01:24:56.152Z,8.10
2023-02-21T01:25:56.129Z,8.12
2023-02-21T01:26:56.153Z,8.10
2023-02-21T01:27:56.128Z,8.10
2023-02-21T01:28:56.114Z,8.10
2023-02-21T01:29:56.087Z,8.12
2023-02-21T01:30:56.108Z,8.10
2023-02-21T01:31:56.074Z,8.10
2023-02-21T01:32:56.050Z,8.13
2023-02-21T01:33:56.066Z,8.12
2023-02-21T01:34:56.045Z,8.12
2023-02-21T01:35:56.016Z,8.12
2023-02-21T01:36:56.016Z,8.12
2023-02-21T01:37:55.994Z,8.14
2023-02-21T01:38:55.990Z,8.13
2023-02-21T01:39:55.946Z,8.13
2023-02-21T01:40:55.940Z,8.14
2023-02-21T01:41:55.919Z,8.14
2023-02-21T01:42:55.905Z,8.10
2023-02-21T01:43:55.914Z,8.12
2023-02-21T01:44:55.935Z,8.12
2023-02-21T01:45:55.898Z,8.10
2023-02-21T01:46:55.903Z,8.12
2023-02-21T01:47:55.838Z,8.12
2023-02-21T01:48:55.851Z,8.12
2023-02-21T01:49:55.803Z,8.12
2023-02-21T01:50:55.822Z,8.13
2023-02-21T01:51:55.805Z,8.12
2023-02-21T01:52:55.763Z,8.10
2023-02-21T01:53:55.808Z,8.12
2023-02-21T01:54:55.785Z,8.12
2023-02-21T01:55:55.768Z,8.10
2023-02-21T01:56:55.740Z,8.12
2023-02-21T01:57:55.737Z,8.12
2023-02-21T01:58:55.708Z,8.10
2023-02-21T01:59:55.712Z,8.12
2023-02-21T02:00:55.680Z,8.10
2023-02-21T02:01:55.659Z,8.10
2023-02-21T02:02:55.675Z,8.10
2023-02-21T02:03:55.640Z,8.10
2023-02-21T02:04:55.649Z,8.10
2023-02-21T02:05:55.637Z,8.09
2023-02-21T02:06:55.607Z,8.10
2023-02-21T02:07:55.654Z,8.10
2023-02-21T02:08:55.549Z,8.10
2023-02-21T02:09:55.583Z,8.10
2023-02-21T02:10:55.542Z,8.09
2023-02-21T02:11:55.555Z,8.09
2023-02-21T02:12:55.498Z,8.09
2023-02-21T02:13:55.555Z,8.09
2023-02-21T02:14:55.505Z,8.10
2023-02-21T02:15:55.502Z,8.07
2023-02-21T02:16:55.480Z,8.09
2023-02-21T02:17:55.491Z,8.07
2023-02-21T02:18:55.426Z,8.07
2023-02-21T02:19:55.468Z,8.07
2023-02-21T02:20:55.397Z,8.07
2023-02-21T02:21:55.440Z,8.07
2023-02-21T02:22:55.394Z,8.07
2023-02-21T02:23:55.376Z,8.09
2023-02-21T02:24:55.378Z,8.09
2023-02-21T02:25:55.385Z,8.09
2023-02-21T02:26:55.316Z,8.09
2023-02-21T02:27:55.324Z,8.09
2023-02-21T02:28:55.325Z,8.09
2023-02-21T02:29:55.330Z,8.07
2023-02-21T02:30:55.327Z,8.07
2023-02-21T02:31:55.419Z,8.07
2023-02-21T02:32:55.276Z,8.07
2023-02-21T02:33:55.273Z,8.09
2023-02-21T02:34:55.219Z,8.06
2023-02-21T02:35:55.244Z,8.07
2023-02-21T02:36:55.200Z,8.07
2023-02-21T02:37:55.205Z,8.07
2023-02-21T02:38:55.165Z,8.09
2023-02-21T02:39:55.165Z,8.09
2023-02-21T02:40:55.174Z,8.09
2023-02-21T02:41:55.181Z,8.09
2023-02-21T02:42:55.114Z,8.09
2023-02-21T02:43:55.149Z,8.09
2023-02-21T02:44:55.092Z,8.09
2023-02-21T02:45:55.108Z,8.09
2023-02-21T02:46:55.064Z,8.09
2023-02-21T02:47:55.060Z,8.10
2023-02-21T02:48:55.047Z,8.10
2023-02-21T02:49:55.032Z,8.09
2023-02-21T02:50:55.025Z,8.09
2023-02-21T02:51:55.017Z,8.07
2023-02-21T02:52:55.030Z,8.09
2023-02-21T02:53:54.988Z,8.06
2023-02-21T02:54:54.949Z,8.06
2023-02-21T02:55:54.996Z,8.09
2023-02-21T02:56:54.969Z,8.09
2023-02-21T02:57:54.957Z,8.10
2023-02-21T02:58:54.898Z,8.09
2023-02-21T02:59:54.897Z,8.10
2023-02-21T03:00:54.906Z,8.10
2023-02-21T03:01:54.942Z,8.10
2023-02-21T03:02:54.874Z,8.10
2023-02-21T03:03:54.947Z,8.10
2023-02-21T03:04:54.860Z,8.12
2023-02-21T03:05:54.861Z,8.12
2023-02-21T03:06:54.834Z,8.10
2023-02-21T03:07:54.795Z,8.09
2023-02-21T03:08:54.804Z,8.12
2023-02-21T03:09:54.779Z,8.12
2023-02-21T03:10:54.772Z,8.12
2023-02-21T03:11:54.789Z,8.12
2023-02-21T03:12:54.741Z,8.13
2023-02-21T03:13:54.723Z,8.14
2023-02-21T03:14:54.722Z,8.13
2023-02-21T03:15:54.766Z,8.14
2023-02-21T03:16:54.676Z,8.14
2023-02-21T03:17:54.679Z,8.14
2023-02-21T03:18:54.639Z,8.17
2023-02-21T03:19:54.643Z,8.17
2023-02-21T03:20:54.638Z,8.18
2023-02-21T03:21:54.632Z,8.18
2023-02-21T03:22:54.616Z,8.18
2023-02-21T03:23:54.633Z,8.20
2023-02-21T03:24:54.570Z,8.18
2023-02-21T03:25:54.565Z,8.18
2023-02-21T03:26:54.583Z,8.18
2023-02-21T03:27:54.578Z,8.18
2023-02-21T03:28:54.537Z,8.18
2023-02-21T03:29:54.536Z,8.18
2023-02-21T03:30:54.532Z,8.18
2023-02-21T03:31:54.608Z,8.18
2023-02-21T03:32:54.473Z,8.17
2023-02-21T03:33:54.487Z,8.17
2023-02-21T03:34:54.478Z,8.18
2023-02-21T03:35:54.465Z,8.17
2023-02-21T03:36:54.428Z,8.18
2023-02-21T03:37:54.436Z,8.14
2023-02-21T03:38:54.380Z,8.17
2023-02-21T03:39:54.412Z,8.13
2023-02-21T03:40:54.385Z,8.14
2023-02-21T03:41:54.382Z,8.14
2023-02-21T03:42:54.357Z,8.14
2023-02-21T03:43:54.376Z,8.14
2023-02-21T03:44:54.358Z,8.14
2023-02-21T03:45:54.333Z,8.17
2023-02-21T03:46:54.318Z,8.17
2023-02-21T03:47:54.312Z,8.14
2023-02-21T03:48:54.249Z,8.14
2023-02-21T03:49:54.257Z,8.14
2023-02-21T03:50:54.231Z,8.14
2023-02-21T03:51:54.228Z,8.14
2023-02-21T03:52:54.218Z,8.14
2023-02-21T03:53:54.233Z,8.17
2023-02-21T03:54:54.167Z,8.17
2023-02-21T03:55:54.221Z,8.17
2023-02-21T03:56:54.193Z,8.18
2023-02-21T03:57:54.139Z,8.17
2023-02-21T03:58:54.165Z,8.14
2023-02-21T03:59:54.135Z,8.14
2023-02-21T04:00:54.158Z,8.17
2023-02-21T04:01:54.112Z,8.17
2023-02-21T04:02:54.069Z,8.17
2023-02-21T04:03:54.080Z,8.17
2023-02-21T04:04:54.097Z,8.17
2023-02-21T04:05:54.029Z,8.17
2023-02-21T04:06:54.052Z,8.17
2023-02-21T04:07:54.022Z,8.17
2023-02-21T04:08:53.998Z,8.14
2023-02-21T04:09:53.994Z,8.12
2023-02-21T04:10:54.005Z,8.13
2023-02-21T04:11:53.969Z,8.13
2023-02-21T04:12:53.939Z,8.12
2023-02-21T04:13:53.950Z,8.12
2023-02-21T04:14:53.936Z,8.12
2023-02-21T04:15:53.963Z,8.13
2023-02-21T04:16:53.899Z,8.12
2023-02-21T04:17:53.914Z,8.12
2023-02-21T04:18:53.885Z,8.10
2023-02-21T04:19:53.899Z,8.10
2023-02-21T04:20:53.880Z,8.12
2023-02-21T04:21:53.883Z,8.12
2023-02-21T04:23:02.711Z,8.13
2023-02-21T04:23:54.816Z,8.12
2023-02-21T04:24:53.792Z,8.12
2023-02-21T04:25:53.798Z,8.12
2023-02-21T04:26:53.784Z,8.10
2023-02-21T04:27:53.764Z,8.10
2023-02-21T04:28:53.763Z,8.10
2023-02-21T04:29:53.771Z,8.12
2023-02-21T04:30:53.748Z,8.10
2023-02-21T04:31:53.859Z,8.10
2023-02-21T04:32:53.697Z,8.10
2023-02-21T04:34:05.841Z,8.12
2023-02-21T04:34:54.665Z,8.10
2023-02-21T04:35:53.686Z,8.13
2023-02-21T04:36:53.638Z,8.12
2023-02-21T04:37:53.659Z,8.13
2023-02-21T04:38:53.605Z,8.12
2023-02-21T04:39:53.604Z,8.14
2023-02-21T04:40:53.600Z,8.13
2023-02-21T04:41:53.611Z,8.13
2023-02-21T04:42:53.553Z,8.14
2023-02-21T04:43:53.570Z,8.14
2023-02-21T04:45:00.090Z,8.13
2023-02-21T04:45:54.601Z,8.14
2023-02-21T04:46:53.530Z,8.14
2023-02-21T04:47:53.495Z,8.14
2023-02-21T04:48:53.494Z,8.14
2023-02-21T04:49:53.509Z,8.13
2023-02-21T04:50:55.885Z,8.12
2023-02-21T04:51:53.489Z,8.13
2023-02-21T04:52:53.434Z,8.12
2023-02-21T04:53:53.452Z,8.13
2023-02-21T04:54:53.478Z,8.14
2023-02-21T04:55:53.421Z,8.14
2023-02-21T04:56:53.459Z,8.13
2023-02-21T04:57:53.373Z,8.14
2023-02-21T04:58:53.360Z,8.17
2023-02-21T04:59:53.389Z,8.17
2023-02-21T05:00:53.391Z,8.14
2023-02-21T05:01:53.348Z,8.17
2023-02-21T05:02:53.312Z,8.17
2023-02-21T05:03:53.376Z,8.17
2023-02-21T05:04:53.399Z,8.17
2023-02-21T05:05:53.287Z,8.14
2023-02-21T05:06:53.240Z,8.13
2023-02-21T05:07:53.267Z,8.13
2023-02-21T05:08:53.236Z,8.13
2023-02-21T05:09:53.246Z,8.10
2023-02-21T05:10:53.228Z,8.13
2023-02-21T05:11:53.239Z,8.12
2023-02-21T05:12:53.160Z,8.12
2023-02-21T05:13:53.162Z,8.12
2023-02-21T05:14:53.157Z,8.13
2023-02-21T05:15:53.180Z,8.12
2023-02-21T05:16:53.205Z,8.13
2023-02-21T05:17:53.107Z,8.14
2023-02-21T05:18:53.084Z,8.14
2023-02-21T05:19:53.087Z,8.17
2023-02-21T05:20:53.084Z,8.14
2023-02-21T05:21:53.087Z,8.13
2023-02-21T05:22:55.873Z,8.13
2023-02-21T05:23:53.034Z,8.14
2023-02-21T05:24:53.003Z,8.14
2023-02-21T05:25:53.041Z,8.13
2023-02-21T05:26:53.042Z,8.14
2023-02-21T05:27:53.014Z,8.13
2023-02-21T05:28:52.982Z,8.10
2023-02-21T05:29:52.965Z,8.10
2023-02-21T05:30:53.046Z,8.10
2023-02-21T05:31:52.943Z,8.13
2023-02-21T05:32:52.925Z,8.10
2023-02-21T05:33:52.912Z,8.10
2023-02-21T05:34:52.938Z,8.10
2023-02-21T05:35:52.874Z,8.12
2023-02-21T05:36:52.878Z,8.12
2023-02-21T05:37:52.892Z,8.12
2023-02-21T05:38:52.879Z,8.12
2023-02-21T05:39:52.855Z,8.12
2023-02-21T05:40:52.824Z,8.12
2023-02-21T05:41:52.844Z,8.09
2023-02-21T05:42:52.800Z,8.10
2023-02-21T05:43:52.821Z,8.10
2023-02-21T05:44:52.778Z,8.09
2023-02-21T05:45:52.773Z,8.10
2023-02-21T05:46:52.744Z,8.09
2023-02-21T05:47:52.727Z,8.09
2023-02-21T05:48:52.743Z,8.07
2023-02-21T05:49:52.762Z,8.06
2023-02-21T05:50:52.688Z,8.06
2023-02-21T05:51:52.683Z,8.06
2023-02-21T05:52:52.642Z,8.07
2023-02-21T05:53:52.669Z,8.06
2023-02-21T05:54:52.630Z,8.06
2023-02-21T05:55:52.612Z,8.04
2023-02-21T05:56:52.588Z,8.06
2023-02-21T05:57:52.590Z,8.06
2023-02-21T05:58:52.588Z,8.06
2023-02-21T05:59:52.589Z,8.04
2023-02-21T06:00:52.564Z,8.04
2023-02-21T06:01:52.542Z,8.03
2023-02-21T06:02:52.507Z,7.99
2023-02-21T06:03:52.559Z,8.00
2023-02-21T06:04:52.515Z,7.99
2023-02-21T06:05:52.515Z,7.96
2023-02-21T06:06:52.491Z,7.96
2023-02-21T06:07:52.481Z,7.96
2023-02-21T06:08:52.489Z,7.94
2023-02-21T06:09:52.459Z,7.95
2023-02-21T06:10:52.416Z,7.91
2023-02-21T06:11:52.452Z,7.89
2023-02-21T06:12:52.442Z,7.86
2023-02-21T06:13:52.362Z,7.86
2023-02-21T06:14:52.362Z,7.85
2023-02-21T06:15:52.377Z,7.82
2023-02-21T06:16:52.380Z,7.79
2023-02-21T06:17:52.312Z,7.76
2023-02-21T06:18:52.332Z,7.79
2023-02-21T06:19:53.268Z,7.77
2023-02-21T06:20:52.326Z,7.77
2023-02-21T06:21:52.269Z,7.77
2023-02-21T06:22:52.319Z,7.77
2023-02-21T06:23:52.256Z,7.77
2023-02-21T06:24:52.309Z,7.76
2023-02-21T06:25:52.210Z,7.77
2023-02-21T06:26:52.207Z,7.74
2023-02-21T06:27:52.189Z,7.76
2023-02-21T06:28:52.223Z,7.76
2023-02-21T06:29:52.197Z,7.74
2023-02-21T06:30:52.263Z,7.74
2023-02-21T06:31:52.245Z,7.76
2023-02-21T06:32:52.171Z,7.74
2023-02-21T06:33:52.169Z,7.73
2023-02-21T06:34:52.115Z,7.73
2023-02-21T06:35:52.109Z,7.73
2023-02-21T06:36:52.083Z,7.74
2023-02-21T06:37:52.090Z,7.74
2023-02-21T06:38:52.075Z,7.74
2023-02-21T06:39:52.160Z,7.74
2023-02-21T06:40:52.063Z,7.73
2023-02-21T06:41:52.024Z,7.74
2023-02-21T06:42:52.031Z,7.73
2023-02-21T06:43:52.017Z,7.71
2023-02-21T06:44:51.996Z,7.73
2023-02-21T06:45:52.117Z,7.71
2023-02-21T06:46:51.987Z,7.71
2023-02-21T06:47:51.923Z,7.73
2023-02-21T06:48:51.923Z,7.71
2023-02-21T06:49:51.903Z,7.74
2023-02-21T06:50:52.163Z,7.74
2023-02-21T06:51:51.911Z,7.76
2023-02-21T06:52:51.961Z,7.77
2023-02-21T06:53:51.853Z,7.76
2023-02-21T06:54:51.950Z,7.74
2023-02-21T06:55:51.845Z,7.74
2023-02-21T06:56:51.869Z,7.74
2023-02-21T06:57:51.819Z,7.74
2023-02-21T06:58:51.840Z,7.76
2023-02-21T06:59:51.820Z,7.77
2023-02-21T07:00:51.776Z,7.77
2023-02-21T07:01:51.839Z,7.76
2023-02-21T07:02:51.746Z,7.76
2023-02-21T07:03:51.745Z,7.76
2023-02-21T07:04:51.772Z,7.74
2023-02-21T07:05:51.802Z,7.73
2023-02-21T07:06:51.746Z,7.74
2023-02-21T07:07:51.690Z,7.73
2023-02-21T07:08:51.727Z,7.73
2023-02-21T07:09:51.638Z,7.71
2023-02-21T07:10:51.668Z,7.69
2023-02-21T07:11:51.650Z,7.71
2023-02-21T07:12:51.643Z,7.70
2023-02-21T07:13:51.596Z,7.73
2023-02-21T07:14:51.596Z,7.73
2023-02-21T07:15:51.619Z,7.74
2023-02-21T07:16:51.560Z,7.73
2023-02-21T07:17:51.531Z,7.73
2023-02-21T07:18:51.594Z,7.73
2023-02-21T07:19:51.527Z,7.74
2023-02-21T07:20:51.526Z,7.74
2023-02-21T07:21:51.515Z,7.74
2023-02-21T07:22:51.476Z,7.76
2023-02-21T07:23:51.475Z,7.77
2023-02-21T07:24:51.511Z,7.76
2023-02-21T07:25:51.446Z,7.76
2023-02-21T07:26:51.485Z,7.71
2023-02-21T07:27:51.411Z,7.71
2023-02-21T07:28:51.493Z,7.70
2023-02-21T07:29:51.420Z,7.73
2023-02-21T07:30:51.438Z,7.73
2023-02-21T07:31:51.559Z,7.70
2023-02-21T07:32:51.379Z,7.69
2023-02-21T07:33:51.368Z,7.67
2023-02-21T07:34:51.374Z,7.66
2023-02-21T07:35:51.331Z,7.69
2023-02-21T07:36:51.311Z,7.70
2023-02-21T07:37:51.303Z,7.70
2023-02-21T07:38:51.283Z,7.73
2023-02-21T07:39:51.310Z,7.74
2023-02-21T07:40:51.307Z,7.76
2023-02-21T07:41:51.260Z,7.77
2023-02-21T07:42:51.249Z,7.77
2023-02-21T07:43:51.253Z,7.79
2023-02-21T07:44:51.238Z,7.77
2023-02-21T07:45:51.227Z,7.79
2023-02-21T07:46:51.266Z,7.79
2023-02-21T07:47:51.180Z,7.79
2023-02-21T07:48:51.222Z,7.79
2023-02-21T07:49:51.157Z,7.79
2023-02-21T07:50:51.155Z,7.77
2023-02-21T07:51:51.138Z,7.77
2023-02-21T07:52:51.117Z,7.76
2023-02-21T07:53:51.110Z,7.79
2023-02-21T07:54:51.110Z,7.77
2023-02-21T07:55:51.125Z,7.77
2023-02-21T07:56:51.054Z,7.76
2023-02-21T07:57:51.323Z,7.76
2023-02-21T07:58:51.053Z,7.74
2023-02-21T07:59:50.999Z,7.71
2023-02-21T08:00:51.041Z,7.70
2023-02-21T08:01:51.108Z,7.69
2023-02-21T08:02:50.959Z,7.71
2023-02-21T08:03:50.958Z,7.70
2023-02-21T08:04:51.022Z,7.71
2023-02-21T08:05:50.918Z,7.73
2023-02-21T08:06:50.984Z,7.73
2023-02-21T08:07:50.911Z,7.74
2023-02-21T08:08:50.877Z,7.77
2023-02-21T08:09:50.895Z,7.76
2023-02-21T08:10:50.893Z,7.76
2023-02-21T08:11:50.862Z,7.76
2023-02-21T08:12:50.835Z,7.76
2023-02-21T08:13:50.827Z,7.77
2023-02-21T08:14:50.849Z,7.73
2023-02-21T08:15:50.913Z,7.71
2023-02-21T08:16:50.808Z,7.69
2023-02-21T08:17:50.791Z,7.70
2023-02-21T08:18:50.764Z,7.70
2023-02-21T08:19:50.749Z,7.70
2023-02-21T08:20:50.752Z,7.71
2023-02-21T08:21:50.710Z,7.69
2023-02-21T08:22:51.643Z,7.67
2023-02-21T08:23:50.698Z,7.67
2023-02-21T08:24:50.711Z,7.69
2023-02-21T08:25:50.688Z,7.70
2023-02-21T08:26:50.640Z,7.70
2023-02-21T08:27:50.637Z,7.71
2023-02-21T08:28:50.620Z,7.73
2023-02-21T08:29:50.613Z,7.70
2023-02-21T08:30:50.672Z,7.69
2023-02-21T08:31:50.647Z,7.70
2023-02-21T08:32:50.659Z,7.73
2023-02-21T08:33:50.536Z,7.74
2023-02-21T08:34:50.580Z,7.74
2023-02-21T08:35:50.530Z,7.77
2023-02-21T08:36:50.561Z,7.77
2023-02-21T08:37:50.500Z,7.77
2023-02-21T08:38:50.524Z,7.79
2023-02-21T08:39:50.467Z,7.76
2023-02-21T08:40:50.509Z,7.74
2023-02-21T08:41:50.465Z,7.74
2023-02-21T08:42:50.437Z,7.73
2023-02-21T08:43:50.437Z,7.73
2023-02-21T08:44:51.157Z,7.76
2023-02-21T08:45:50.415Z,7.76
2023-02-21T08:46:50.590Z,7.74
2023-02-21T08:47:50.381Z,7.76
2023-02-21T08:48:54.078Z,7.77
2023-02-21T08:49:50.362Z,7.77
2023-02-21T08:50:50.379Z,7.79
2023-02-21T08:51:50.316Z,7.79
2023-02-21T08:52:50.334Z,7.81
2023-02-21T08:53:50.287Z,7.84
2023-02-21T08:54:50.315Z,7.84
2023-02-21T08:55:50.295Z,7.84
2023-02-21T08:56:50.256Z,7.79
2023-02-21T08:57:50.233Z,7.79
2023-02-21T08:58:50.263Z,7.79
2023-02-21T08:59:50.210Z,7.77
2023-02-21T09:00:50.296Z,7.79
2023-02-21T09:01:50.210Z,7.79
2023-02-21T09:02:50.176Z,7.82
2023-02-21T09:03:50.164Z,7.84
2023-02-21T09:04:50.194Z,7.85
2023-02-21T09:05:50.146Z,7.84
2023-02-21T09:06:50.128Z,7.81
2023-02-21T09:07:50.165Z,7.82
2023-02-21T09:08:50.109Z,7.82
2023-02-21T09:09:50.111Z,7.82
2023-02-21T09:10:50.144Z,7.82
2023-02-21T09:11:50.090Z,7.85
2023-02-21T09:12:50.071Z,7.84
2023-02-21T09:13:50.039Z,7.84
2023-02-21T09:14:50.058Z,7.85
2023-02-21T09:15:50.012Z,7.88
2023-02-21T09:16:50.029Z,7.89
2023-02-21T09:17:49.997Z,7.88
2023-02-21T09:18:50.763Z,7.88
2023-02-21T09:19:49.982Z,7.89
2023-02-21T09:20:49.956Z,7.88
2023-02-21T09:21:49.944Z,7.88
2023-02-21T09:22:49.922Z,7.88
2023-02-21T09:23:49.921Z,7.85
2023-02-21T09:24:49.894Z,7.88
2023-02-21T09:25:49.917Z,7.88
2023-02-21T09:26:49.875Z,7.91
2023-02-21T09:27:50.818Z,7.91
2023-02-21T09:28:49.893Z,7.92
2023-02-21T09:29:49.848Z,7.95
2023-02-21T09:30:49.889Z,7.96
2023-02-21T09:31:49.950Z,7.96
2023-02-21T09:32:49.866Z,8.00
2023-02-21T09:33:49.793Z,7.99
2023-02-21T09:34:49.810Z,7.99
2023-02-21T09:35:49.772Z,7.99
2023-02-21T09:36:49.762Z,7.92
2023-02-21T09:37:49.712Z,7.91
2023-02-21T09:38:49.730Z,7.94
2023-02-21T09:39:49.723Z,7.91
2023-02-21T09:40:49.743Z,7.89
2023-02-21T09:41:49.670Z,7.91
2023-02-21T09:42:49.671Z,7.89
2023-02-21T09:43:49.648Z,7.86
2023-02-21T09:44:49.651Z,7.91
2023-02-21T09:45:49.779Z,7.88
2023-02-21T09:46:49.663Z,7.86
2023-02-21T09:47:49.618Z,7.86
2023-02-21T09:48:49.591Z,7.89
2023-02-21T09:49:49.591Z,7.88
2023-02-21T09:50:49.825Z,7.86
2023-02-21T09:51:49.555Z,7.88
2023-02-21T09:52:49.555Z,7.89
2023-02-21T09:53:49.564Z,7.89
2023-02-21T09:54:49.532Z,7.89
2023-02-21T09:55:49.496Z,7.89
2023-02-21T09:56:49.584Z,7.91
2023-02-21T09:57:49.482Z,7.94
2023-02-21T09:58:49.481Z,7.99
2023-02-21T09:59:49.458Z,8.00
2023-02-21T10:00:49.560Z,8.02
2023-02-21T10:01:49.409Z,8.02
2023-02-21T10:02:49.397Z,7.95
2023-02-21T10:03:49.428Z,7.95
2023-02-21T10:04:49.422Z,7.96
2023-02-21T10:05:49.368Z,7.96
2023-02-21T10:06:49.383Z,7.99
2023-02-21T10:07:49.382Z,8.00
2023-02-21T10:08:49.332Z,7.94
2023-02-21T10:09:49.322Z,7.95
2023-02-21T10:10:49.332Z,7.95
2023-02-21T10:11:49.317Z,7.95
2023-02-21T10:12:49.280Z,8.00
2023-02-21T10:13:49.270Z,8.03
2023-02-21T10:14:49.269Z,8.03
2023-02-21T10:15:50.021Z,8.02
2023-02-21T10:16:49.323Z,7.99
2023-02-21T10:17:49.247Z,7.99
2023-02-21T10:18:49.195Z,8.00
2023-02-21T10:19:49.192Z,8.02
2023-02-21T10:20:49.195Z,8.04
2023-02-21T10:21:49.160Z,8.07
2023-02-21T10:22:49.173Z,8.06
2023-02-21T10:23:49.173Z,8.09
2023-02-21T10:24:49.122Z,8.10
2023-02-21T10:25:49.098Z,8.13
2023-02-21T10:26:49.112Z,8.14
2023-02-21T10:27:49.079Z,8.18
2023-02-21T10:28:49.058Z,8.18
2023-02-21T10:29:49.073Z,8.20
2023-02-21T10:30:51.190Z,8.21
2023-02-21T10:31:49.025Z,8.21
2023-02-21T10:32:49.736Z,8.22
2023-02-21T10:33:49.034Z,8.27
2023-02-21T10:34:48.995Z,8.25
2023-02-21T10:35:48.995Z,8.22
2023-02-21T10:36:48.944Z,8.22
2023-02-21T10:37:49.006Z,8.17
2023-02-21T10:38:48.926Z,8.14
2023-02-21T10:39:48.941Z,8.17
2023-02-21T10:40:48.913Z,8.17
2023-02-21T10:41:48.914Z,8.17
2023-02-21T10:42:48.894Z,8.20
2023-02-21T10:43:48.891Z,8.22
2023-02-21T10:44:48.908Z,8.25
2023-02-21T10:45:49.694Z,8.27
2023-02-21T10:46:48.805Z,8.29
2023-02-21T10:47:48.813Z,8.27
2023-02-21T10:48:48.823Z,8.28
2023-02-21T10:49:48.813Z,8.31
2023-02-21T10:50:48.794Z,8.37
2023-02-21T10:51:48.769Z,8.36
2023-02-21T10:52:48.865Z,8.37
2023-02-21T10:53:48.787Z,8.34
2023-02-21T10:54:48.731Z,8.32
2023-02-21T10:55:48.790Z,8.31
2023-02-21T10:56:48.702Z,8.34
2023-02-21T10:57:48.692Z,8.34
2023-02-21T10:58:48.681Z,8.31
2023-02-21T10:59:50.664Z,8.31
2023-02-21T11:00:48.775Z,8.31
2023-02-21T11:01:48.653Z,8.32
2023-02-21T11:02:48.617Z,8.34
2023-02-21T11:03:48.646Z,8.36
2023-02-21T11:04:48.597Z,8.36
2023-02-21T11:05:48.621Z,8.40
2023-02-21T11:06:49.350Z,8.43
2023-02-21T11:07:48.578Z,8.45
2023-02-21T11:08:48.535Z,8.43
2023-02-21T11:09:48.543Z,8.45
2023-02-21T11:10:48.515Z,8.46
2023-02-21T11:11:48.508Z,8.47
2023-02-21T11:12:48.519Z,8.50
2023-02-21T11:13:48.506Z,8.52
2023-02-21T11:14:48.488Z,8.54
2023-02-21T11:15:48.546Z,8.52
2023-02-21T11:16:48.422Z,8.54
2023-02-21T11:17:48.462Z,8.55
2023-02-21T11:18:49.219Z,8.55
2023-02-21T11:19:48.439Z,8.55
2023-02-21T11:20:48.397Z,8.57
2023-02-21T11:21:48.383Z,8.57
2023-02-21T11:22:48.388Z,8.49
2023-02-21T11:23:48.670Z,8.50
2023-02-21T11:24:48.364Z,8.50
2023-02-21T11:25:48.358Z,8.54
2023-02-21T11:26:48.299Z,8.55
2023-02-21T11:27:48.346Z,8.55
2023-02-21T11:28:48.351Z,8.57
2023-02-21T11:29:48.269Z,8.58
2023-02-21T11:30:48.381Z,8.63
2023-02-21T11:31:48.396Z,8.61
2023-02-21T11:32:48.243Z,8.63
2023-02-21T11:33:48.209Z,8.63
2023-02-21T11:34:48.217Z,8.61
2023-02-21T11:35:48.198Z,8.61
2023-02-21T11:36:48.207Z,8.64
2023-02-21T11:37:48.197Z,8.63
2023-02-21T11:38:48.149Z,8.64
2023-02-21T11:39:48.171Z,8.65
2023-02-21T11:40:48.163Z,8.68
2023-02-21T11:41:48.129Z,8.70
2023-02-21T11:42:48.099Z,8.75
2023-02-21T11:43:48.231Z,8.76
2023-02-21T11:44:48.081Z,8.78
2023-02-21T11:45:48.090Z,8.78
2023-02-21T11:46:48.088Z,8.78
2023-02-21T11:47:48.073Z,8.79
2023-02-21T11:48:48.049Z,8.82
2023-02-21T11:49:50.516Z,8.82
2023-02-21T11:50:47.989Z,8.83
2023-02-21T11:51:48.021Z,8.82
2023-02-21T11:52:47.965Z,8.85
2023-02-21T11:53:47.996Z,8.86
2023-02-21T11:54:48.947Z,8.86
2023-02-21T11:55:47.976Z,8.86
2023-02-21T11:56:47.920Z,8.88
2023-02-21T11:57:47.962Z,8.83
2023-02-21T11:58:47.956Z,8.82
2023-02-21T11:59:47.889Z,8.80
2023-02-21T12:00:47.891Z,8.80
2023-02-21T12:01:47.856Z,8.82
2023-02-21T12:02:47.902Z,8.82
2023-02-21T12:03:47.836Z,8.85
2023-02-21T12:04:47.834Z,8.89
2023-02-21T12:05:47.850Z,8.89
2023-02-21T12:06:50.138Z,8.91
2023-02-21T12:07:47.813Z,8.88
2023-02-21T12:08:47.818Z,8.88
2023-02-21T12:09:47.781Z,8.88
2023-02-21T12:10:47.760Z,8.91
2023-02-21T12:11:47.766Z,8.89
2023-02-21T12:12:47.724Z,8.91
2023-02-21T12:13:47.747Z,8.93
2023-02-21T12:14:47.688Z,8.93
2023-02-21T12:15:47.690Z,8.94
2023-02-21T12:16:47.659Z,8.97
2023-02-21T12:17:47.684Z,8.96
2023-02-21T12:18:47.679Z,8.96
2023-02-21T12:19:47.642Z,8.94
2023-02-21T12:20:47.630Z,8.93
2023-02-21T12:21:47.633Z,8.91
2023-02-21T12:22:47.584Z,8.93
2023-02-21T12:23:47.584Z,8.94
2023-02-21T12:24:47.683Z,8.98
2023-02-21T12:25:47.548Z,8.98
2023-02-21T12:26:47.564Z,8.98
2023-02-21T12:27:47.521Z,8.96
2023-02-21T12:28:47.546Z,8.98
2023-02-21T12:29:47.535Z,9.01
2023-02-21T12:30:47.514Z,9.04
2023-02-21T12:31:47.736Z,9.04
2023-02-21T12:32:47.622Z,9.04
2023-02-21T12:33:47.474Z,9.04
2023-02-21T12:34:47.477Z,9.03
2023-02-21T12:35:47.504Z,9.04
2023-02-21T12:36:47.464Z,9.01
2023-02-21T12:37:47.466Z,8.98
2023-02-21T12:38:47.371Z,8.98
2023-02-21T12:39:47.417Z,8.98
2023-02-21T12:40:47.399Z,8.97
2023-02-21T12:41:47.455Z,9.01
2023-02-21T12:42:47.313Z,9.01
2023-02-21T12:43:47.325Z,9.03
2023-02-21T12:44:47.321Z,9.03
2023-02-21T12:45:47.521Z,9.00
2023-02-21T12:46:47.399Z,8.98
2023-02-21T12:47:47.318Z,8.98
2023-02-21T12:48:47.277Z,8.98
2023-02-21T12:49:47.269Z,8.97
2023-02-21T12:50:47.244Z,8.98
2023-02-21T12:51:47.291Z,8.98
2023-02-21T12:52:47.228Z,9.00
2023-02-21T12:53:47.183Z,9.00
2023-02-21T12:54:47.208Z,8.98
2023-02-21T12:55:47.204Z,9.00
2023-02-21T12:56:47.421Z,9.03
2023-02-21T12:57:47.197Z,9.03
2023-02-21T12:58:47.538Z,9.03
2023-02-21T12:59:47.121Z,9.01
2023-02-21T13:00:47.091Z,8.96
2023-02-21T13:01:47.142Z,8.91
2023-02-21T13:02:47.134Z,8.91
2023-02-21T13:03:47.086Z,8.91
2023-02-21T13:04:47.062Z,8.94
2023-02-21T13:05:47.050Z,8.93
2023-02-21T13:06:47.044Z,8.94
2023-02-21T13:07:47.082Z,8.97
2023-02-21T13:08:47.002Z,8.97
2023-02-21T13:09:47.053Z,8.97
2023-02-21T13:10:54.688Z,8.94
2023-02-21T13:11:46.981Z,8.86
2023-02-21T13:12:46.935Z,8.85
2023-02-21T13:13:47.006Z,8.83
2023-02-21T13:14:46.926Z,8.83
2023-02-21T13:15:46.956Z,8.86
2023-02-21T13:16:46.865Z,8.91
2023-02-21T13:17:46.888Z,8.94
2023-02-21T13:18:46.845Z,8.93